Flight Track Log - Related Links

Times and Time Zones

All times are in EDT time to prevent confusion due to time zone crossing. See the N2782Y flight status page for this flight to view local times or setup timezone preferences in your user account.


Time Position Orientation Groundspeed Altitude Reporting Facility
EDT Latitude Longitude Course Direction KTS MPH feet Rate Location/Type
Sun 10:00:37 PM 41.3969 -82.7783 249° West 116 133 2,700  Level Cleveland Center
Sun 10:02:00 PM 41.3778 -82.8463 249° West  Level Estimated
Sun 10:06:00 PM 41.3409 -82.9391 249° West  Level FlightAware Approximate
Sun 10:09:00 PM 41.2765 -83.1879 249° West  Level FlightAware Approximate
Sun 10:10:00 PM 41.2619 -83.2366 248° West  Level FlightAware Approximate
Sun 10:11:00 PM 41.2474 -83.2853 248° West  Level FlightAware Approximate
Sun 10:12:00 PM 41.2328 -83.3340 248° West  Level FlightAware Approximate
Sun 10:13:00 PM 41.2182 -83.3826 248° West  Level FlightAware Approximate
Sun 10:14:00 PM 41.2035 -83.4312 248° West  Level FlightAware Approximate
Sun 10:15:00 PM 41.1889 -83.4798 248° West  Level FlightAware Approximate
Sun 10:16:00 PM 41.1742 -83.5284 248° West  Level FlightAware Approximate
Sun 10:17:00 PM 41.1595 -83.5770 248° West  Level FlightAware Approximate
Sun 10:18:00 PM 41.1447 -83.6255 248° West  Level FlightAware Approximate
Sun 10:19:00 PM 41.1300 -83.6740 248° West  Level FlightAware Approximate
Sun 10:20:00 PM 41.1152 -83.7225 248° West  Level FlightAware Approximate
Sun 10:21:00 PM 41.1005 -83.7710 248° West  Level FlightAware Approximate
Sun 10:21:50 PM 41.0544 -83.8342 248° West 159 183 3,900  Level Chicago Center
Sun 10:22:00 PM 41.0857 -83.8194 248° West  Level FlightAware Approximate
Sun 10:22:51 PM 41.0317 -83.8961 244° Southwest 163 188 3,900  Level Chicago Center
Sun 10:23:00 PM 41.0709 -83.8679 248° West  Level FlightAware Approximate
Sun 10:23:53 PM 41.0100 -83.9486 241° Southwest 159 183 3,900  Level Chicago Center
Sun 10:24:00 PM 41.0560 -83.9163 248° West  Level FlightAware Approximate
Sun 10:24:54 PM 40.9942 -84.0022 249° West 158 182 3,700  Level Chicago Center
Sun 10:25:00 PM 41.0411 -83.9647 248° West  Level FlightAware Approximate
Sun 10:25:56 PM 40.9756 -84.0603 247° West 158 182 3,400  Level Chicago Center
Sun 10:26:00 PM 41.0263 -84.0130 248° West  Level FlightAware Approximate
Sun 10:26:57 PM 40.9550 -84.1128 243° Southwest 158 182 3,100  Level Chicago Center
Sun 10:27:00 PM 41.0114 -84.0614 248° West  Level FlightAware Approximate
Sun 10:28:00 PM 40.9453 -84.1660 256° West  Level Estimated
Sun 10:29:00 PM 40.9203 -84.2053 256° West 133 153 3,000  Level Chicago Center
Sun 10:30:02 PM 40.9036 -84.2519 245° Southwest 139 160 2,900 -49 Descending Chicago Center
Sun 10:31:03 PM 40.8881 -84.2956 245° Southwest 136 157 2,900  Level Chicago Center
Sun 10:32:05 PM 40.8733 -84.3356 244° Southwest 131 151 2,900  Level Chicago Center
Sun 10:33:06 PM 40.8594 -84.3753 245° Southwest 124 143 2,900  Level Chicago Center

Login

Don't have an account? Register now (free) for customized features, flight alerts, and more!